M I D A S
Marine Information and Data Acquisition System
Tripno 1679 of the Zeeleeuw from 2009-04-22 07:15:18 to 2009-04-22 11:59:43
Back to CruiseResearch ActivitiesStationsMapUnderway DataData graphs

EquipmentUnitsComment
TimeDGPSUTC
LatitudeDGPSDM.mWGS84
LongitudeDGPSDM.mWGS84
HeadingGyrodeg 
SOGDGPSknotsSpeed over ground
COGDGPSdegCourse over ground
DepthEcho soundermeters200 kHz
Missing or incorrect values are displayed as -999
Navigation data collected by the RV Zeeleeuw from 2009-04-22 07:07:40 to 2009-04-22 12:13:01
                                                                                    Next 1000 lines
Time Latitude Longitude Heading SOG COG Depth
2009-04-22 07:07:50 51°13.664 2°55.956 113.7 1 296 5.5
2009-04-22 07:07:55 51°13.665 2°55.953 113.7 1.4 298 5.5
2009-04-22 07:08:00 51°13.666 2°55.949 113.7 1.8 296 5.5
2009-04-22 07:08:06 51°13.667 2°55.944 113.7 2 297 -999
2009-04-22 07:08:11 51°13.668 2°55.94 113.5 2.3 295 -999
2009-04-22 07:08:17 51°13.67 2°55.934 113 2.4 295 -999
2009-04-22 07:08:22 51°13.671 2°55.928 112.6 2.6 295 -999
2009-04-22 07:08:28 51°13.673 2°55.922 111.9 2.8 292 -999
2009-04-22 07:08:34 51°13.675 2°55.914 110.8 2.9 291 -999
2009-04-22 07:08:39 51°13.676 2°55.908 109.8 3 290 -999
2009-04-22 07:08:44 51°13.678 2°55.902 108.9 3.1 289 -999
2009-04-22 07:08:49 51°13.679 2°55.895 108.1 3.2 288 -999
2009-04-22 07:08:54 51°13.68 2°55.888 107.4 3.3 287 -999
2009-04-22 07:08:58 51°13.682 2°55.882 107 3.4 287 -999
2009-04-22 07:09:04 51°13.683 2°55.873 106.8 3.5 287 -999
2009-04-22 07:09:09 51°13.684 2°55.865 106.8 3.6 285 -999
2009-04-22 07:09:14 51°13.686 2°55.857 106.6 3.7 286 -999
2009-04-22 07:09:19 51°13.687 2°55.849 106.1 3.8 285 -999
2009-04-22 07:09:24 51°13.689 2°55.841 105.8 3.7 287 -999
2009-04-22 07:09:29 51°13.69 2°55.834 105.6 3.6 285 -999
2009-04-22 07:09:34 51°13.691 2°55.826 105.6 3.6 286 -999
2009-04-22 07:09:39 51°13.692 2°55.819 105.3 3.4 285 -999
2009-04-22 07:09:44 51°13.694 2°55.812 105.2 3.2 285 -999
2009-04-22 07:09:48 51°13.694 2°55.807 105.1 3.2 285 -999
2009-04-22 07:09:54 51°13.696 2°55.799 104.8 3.1 285 -999
2009-04-22 07:09:58 51°13.697 2°55.794 104.6 3 285 -999
2009-04-22 07:10:04 51°13.698 2°55.786 103.9 2.9 285 -999
2009-04-22 07:10:09 51°13.699 2°55.78 103.4 2.8 285 11.5
2009-04-22 07:10:14 51°13.7 2°55.774 103.1 2.7 284 11.5
2009-04-22 07:10:18 51°13.701 2°55.77 102.7 2.6 284 -999
2009-04-22 07:10:23 51°13.701 2°55.765 102.2 2.5 284 4.6
2009-04-22 07:10:28 51°13.702 2°55.76 101.7 2.1 285 12.4
2009-04-22 07:10:33 51°13.703 2°55.756 101 1.8 285 12.3
2009-04-22 07:10:38 51°13.703 2°55.753 99.6 1.5 285 12.4
2009-04-22 07:10:43 51°13.704 2°55.75 97.7 1.3 287 12.4
2009-04-22 07:10:47 51°13.704 2°55.749 95.5 1 286 12.9
2009-04-22 07:10:53 51°13.705 2°55.747 93 0.7 296 12.4
2009-04-22 07:10:57 51°13.705 2°55.747 90.5 0.4 304 12.3
2009-04-22 07:11:02 51°13.706 2°55.746 87.6 0.4 344 12.2
2009-04-22 07:11:07 51°13.706 2°55.747 84.1 0.4 21 12.1
2009-04-22 07:11:12 51°13.707 2°55.747 80.1 0.5 37 12
2009-04-22 07:11:17 51°13.707 2°55.748 75.6 0.6 42 12.3
2009-04-22 07:11:22 51°13.708 2°55.749 71.1 0.7 46 12.5
2009-04-22 07:11:26 51°13.708 2°55.751 66.8 0.7 45 12.5
2009-04-22 07:11:31 51°13.709 2°55.752 62.5 0.7 37 12.5
2009-04-22 07:11:36 51°13.71 2°55.752 59.2 0.6 34 12.5
2009-04-22 07:11:41 51°13.71 2°55.752 56.6 0.2 355 12.5
2009-04-22 07:11:46 51°13.71 2°55.751 53.8 0.3 280 12.5
2009-04-22 07:11:51 51°13.71 2°55.75 50.6 0.5 255 12.5
2009-04-22 07:11:55 51°13.71 2°55.749 48 0.7 246 12.4
2009-04-22 07:12:01 51°13.709 2°55.747 45.6 0.9 237 12.9
2009-04-22 07:12:05 51°13.708 2°55.746 43.3 1.1 235 12.5
2009-04-22 07:12:10 51°13.707 2°55.743 41.2 1.2 231 12.2
2009-04-22 07:12:15 51°13.706 2°55.742 39.2 1.2 231 11.9
2009-04-22 07:12:20 51°13.705 2°55.74 37.3 1.1 228 4.6
2009-04-22 07:12:26 51°13.704 2°55.738 35.8 0.9 237 4.7
2009-04-22 07:12:30 51°13.704 2°55.737 34.2 0.3 267 4.7
2009-04-22 07:12:35 51°13.705 2°55.737 31.4 0.6 352 4.6
2009-04-22 07:12:40 51°13.706 2°55.737 25.9 1 4 4.5
2009-04-22 07:12:46 51°13.709 2°55.737 19.5 1.5 3 -999
2009-04-22 07:12:50 51°13.711 2°55.737 10.8 1.8 359 5
2009-04-22 07:12:55 51°13.714 2°55.737 5 2.1 354 4.9
2009-04-22 07:13:00 51°13.717 2°55.736 357.7 2.4 347 11.8
2009-04-22 07:13:05 51°13.721 2°55.734 350.3 2.6 343 11.8
2009-04-22 07:13:10 51°13.724 2°55.731 342.8 2.9 335 11.6
2009-04-22 07:13:15 51°13.728 2°55.728 336.2 3.2 334 11.6
2009-04-22 07:13:20 51°13.733 2°55.723 331 3.9 327 11.5
2009-04-22 07:13:25 51°13.738 2°55.718 328.6 4.4 328 11.5
2009-04-22 07:13:30 51°13.743 2°55.712 327.2 4.8 325 11.3
2009-04-22 07:13:35 51°13.749 2°55.706 327.1 5.1 326 10.9
2009-04-22 07:13:40 51°13.756 2°55.698 327.4 5.5 326 10.2
2009-04-22 07:13:45 51°13.762 2°55.691 327.4 5.8 325 10.2
2009-04-22 07:13:50 51°13.769 2°55.684 327.9 6.1 327 10.3
2009-04-22 07:13:55 51°13.777 2°55.677 329 6.2 327 10.2
2009-04-22 07:14:00 51°13.784 2°55.669 329.9 6.5 329 10.3
2009-04-22 07:14:05 51°13.792 2°55.662 330.8 6.6 329 10.3
2009-04-22 07:14:10 51°13.8 2°55.654 331.6 6.8 330 10.2
2009-04-22 07:14:15 51°13.809 2°55.646 332.4 6.9 331 10.3
2009-04-22 07:14:20 51°13.817 2°55.639 333.2 7 332 10.2
2009-04-22 07:14:25 51°13.826 2°55.632 334 7.1 333 10.1
2009-04-22 07:14:30 51°13.835 2°55.625 334.7 7.2 333 10.2
2009-04-22 07:14:35 51°13.844 2°55.618 335.4 7.2 334 10.2
2009-04-22 07:14:40 51°13.853 2°55.611 335.9 7.3 334 10.4
2009-04-22 07:14:45 51°13.862 2°55.604 336.1 7.4 334 10.5
2009-04-22 07:14:50 51°13.872 2°55.597 336.5 7.5 335 10.4
2009-04-22 07:14:55 51°13.881 2°55.59 336.6 7.6 335 10.5
2009-04-22 07:15:00 51°13.891 2°55.583 336.7 7.7 335 10.6
2009-04-22 07:15:06 51°13.903 2°55.574 337.2 7.7 336 10.6
2009-04-22 07:15:10 51°13.91 2°55.568 337.6 7.7 336 10.6
2009-04-22 07:15:15 51°13.92 2°55.561 338.1 7.8 337 10.6
2009-04-22 07:15:20 51°13.93 2°55.554 338.1 7.9 336 10.6
2009-04-22 07:15:25 51°13.941 2°55.547 338.3 8 337 10.6
2009-04-22 07:15:30 51°13.951 2°55.541 339.2 8 337 10.6
2009-04-22 07:15:35 51°13.961 2°55.534 339.4 8.1 337 10.6
2009-04-22 07:15:40 51°13.972 2°55.526 338.7 8.1 336 10.6
2009-04-22 07:15:45 51°13.982 2°55.519 338.4 8.2 337 10.6
2009-04-22 07:15:50 51°13.992 2°55.512 338.6 8.1 337 10.5
2009-04-22 07:15:55 51°14.003 2°55.505 338.9 8.1 337 10.5
2009-04-22 07:15:59 51°14.011 2°55.499 338.4 8.2 336 10.6
2009-04-22 07:16:05 51°14.024 2°55.49 337.5 8.2 335 10.5
2009-04-22 07:16:10 51°14.034 2°55.482 337.1 8.2 335 10.6
2009-04-22 07:16:15 51°14.044 2°55.474 337.1 8.3 335 10.6
2009-04-22 07:16:20 51°14.055 2°55.466 337.1 8.3 335 10.6
2009-04-22 07:16:25 51°14.065 2°55.458 337 8.3 335 10.5
2009-04-22 07:16:30 51°14.076 2°55.451 337 8.4 335 10.6
2009-04-22 07:16:35 51°14.086 2°55.443 336.8 8.4 334 10.5
2009-04-22 07:16:40 51°14.097 2°55.435 336.2 8.4 334 10.5
2009-04-22 07:16:45 51°14.107 2°55.426 336.1 8.4 334 10.5
2009-04-22 07:16:50 51°14.118 2°55.418 335.8 8.4 334 10.5
2009-04-22 07:16:55 51°14.128 2°55.409 335.1 8.5 333 10.5
2009-04-22 07:17:00 51°14.139 2°55.401 334.9 8.5 332 10.5
2009-04-22 07:17:05 51°14.149 2°55.392 334.7 8.5 332 -999
2009-04-22 07:17:10 51°14.159 2°55.383 333.5 8.5 330 10.5
2009-04-22 07:17:15 51°14.169 2°55.373 331.8 8.5 329 10.5
2009-04-22 07:17:20 51°14.179 2°55.362 330.1 8.5 327 10.5
2009-04-22 07:17:25 51°14.189 2°55.352 328.9 8.5 327 10.5
2009-04-22 07:17:30 51°14.198 2°55.341 327.6 8.5 324 10.6
2009-04-22 07:17:35 51°14.208 2°55.33 326.7 8.5 324 10.6
2009-04-22 07:17:40 51°14.217 2°55.318 325.5 8.5 322 10.6
2009-04-22 07:17:46 51°14.228 2°55.304 323.8 8.5 321 10.6
2009-04-22 07:17:50 51°14.235 2°55.294 321.9 8.6 319 10.5
2009-04-22 07:17:55 51°14.244 2°55.281 320.3 8.6 318 -999
2009-04-22 07:18:00 51°14.253 2°55.268 318.9 8.6 316 10.5
2009-04-22 07:18:05 51°14.261 2°55.254 317.5 8.7 315 10.5
2009-04-22 07:18:10 51°14.269 2°55.24 316.2 8.7 313 10.5
2009-04-22 07:18:15 51°14.277 2°55.226 315 8.7 312 10.6
2009-04-22 07:18:19 51°14.284 2°55.214 313.7 8.7 311 10.6
2009-04-22 07:18:25 51°14.293 2°55.197 312.9 8.7 310 10.6
2009-04-22 07:18:30 51°14.301 2°55.182 311.9 8.8 310 10.6
2009-04-22 07:18:35 51°14.309 2°55.167 311.3 8.8 309 10.5
2009-04-22 07:18:40 51°14.316 2°55.151 310.5 8.9 308 10.6
2009-04-22 07:18:45 51°14.324 2°55.136 310 9 308 10.6
2009-04-22 07:18:50 51°14.332 2°55.12 310 9 309 10.6
2009-04-22 07:18:55 51°14.34 2°55.104 310 9 308 10.6
2009-04-22 07:19:00 51°14.347 2°55.089 309.8 9 308 10.6
2009-04-22 07:19:05 51°14.355 2°55.073 309.4 9 308 10.9
2009-04-22 07:19:10 51°14.363 2°55.057 309.2 9 308 10.6
2009-04-22 07:19:15 51°14.37 2°55.041 308.5 9.1 306 10.4
2009-04-22 07:19:20 51°14.377 2°55.025 307.7 9.1 306 10.3
2009-04-22 07:19:25 51°14.384 2°55.008 305.9 9.2 304 10.3
2009-04-22 07:19:30 51°14.391 2°54.991 304.9 9.2 305 10.3
2009-04-22 07:19:35 51°14.399 2°54.974 305.9 9.3 306 10.4
2009-04-22 07:19:40 51°14.407 2°54.958 308 9.4 308 10.4
2009-04-22 07:19:45 51°14.415 2°54.942 310 9.5 309 10.5
2009-04-22 07:19:50 51°14.424 2°54.926 312.3 9.5 311 10.7
2009-04-22 07:19:55 51°14.433 2°54.911 314.4 9.6 313 10.7
2009-04-22 07:20:00 51°14.442 2°54.895 315.4 9.7 313 10.8
2009-04-22 07:20:05 51°14.452 2°54.879 315.6 9.8 313 10.8
2009-04-22 07:20:10 51°14.461 2°54.863 315.9 9.8 313 10.7
2009-04-22 07:20:15 51°14.471 2°54.847 316.6 9.9 314 10.7
2009-04-22 07:20:20 51°14.48 2°54.831 317.3 10 315 10.7
2009-04-22 07:20:25 51°14.49 2°54.816 318.7 10 317 10.7
2009-04-22 07:20:30 51°14.501 2°54.802 322.1 10 319 10.7
2009-04-22 07:20:35 51°14.511 2°54.787 323.8 10 319 10.4
2009-04-22 07:20:40 51°14.522 2°54.773 324.3 10.1 320 10.4
2009-04-22 07:20:45 51°14.533 2°54.759 324.5 10.1 320 10.3
2009-04-22 07:20:50 51°14.543 2°54.744 324.7 10.1 320 10.3
2009-04-22 07:20:55 51°14.554 2°54.73 325.2 10.1 320 10.2
2009-04-22 07:20:59 51°14.563 2°54.719 325.6 10.1 320 10.2
2009-04-22 07:21:05 51°14.576 2°54.702 325.5 10.1 321 10.1
2009-04-22 07:21:10 51°14.587 2°54.688 325.9 10.1 322 10.1
2009-04-22 07:21:15 51°14.598 2°54.674 326.7 10.1 322 10.1
2009-04-22 07:21:20 51°14.609 2°54.661 327.7 10.1 323 10
2009-04-22 07:21:25 51°14.62 2°54.648 328.3 10.1 323 10
2009-04-22 07:21:30 51°14.631 2°54.635 328.8 10.1 324 9.9
2009-04-22 07:21:35 51°14.643 2°54.623 330.4 10 327 9.9
2009-04-22 07:21:41 51°14.658 2°54.61 334.3 9.9 331 10
2009-04-22 07:21:45 51°14.667 2°54.602 337.5 9.9 333 10
2009-04-22 07:21:50 51°14.68 2°54.593 340.2 9.8 336 10.1
2009-04-22 07:21:55 51°14.692 2°54.585 341.4 9.8 336 10
2009-04-22 07:22:00 51°14.705 2°54.576 341.3 9.8 335 9.9
2009-04-22 07:22:05 51°14.717 2°54.566 340.7 9.9 334 10
2009-04-22 07:22:10 51°14.729 2°54.556 340.1 9.9 335 10.1
2009-04-22 07:22:15 51°14.741 2°54.546 339 9.9 332 10
2009-04-22 07:22:20 51°14.753 2°54.536 338.3 9.9 333 9.9
2009-04-22 07:22:26 51°14.768 2°54.524 338.4 9.9 332 9.8
2009-04-22 07:22:30 51°14.777 2°54.515 338.1 9.9 332 9.8
2009-04-22 07:22:35 51°14.789 2°54.505 337.6 9.9 332 9.9
2009-04-22 07:22:40 51°14.802 2°54.495 337.1 9.9 332 9.9
2009-04-22 07:22:45 51°14.814 2°54.484 337.1 9.9 331 9.9
2009-04-22 07:22:50 51°14.826 2°54.474 336.9 9.9 331 9.8
2009-04-22 07:22:55 51°14.838 2°54.463 336.1 9.9 330 9.7
2009-04-22 07:23:00 51°14.849 2°54.452 335.4 9.9 330 9.8
2009-04-22 07:23:05 51°14.861 2°54.441 335.4 9.9 330 9.7
2009-04-22 07:23:10 51°14.873 2°54.43 335.1 9.9 329 9.7
2009-04-22 07:23:15 51°14.885 2°54.419 334 9.9 329 9.4
2009-04-22 07:23:19 51°14.894 2°54.41 333.8 9.9 329 9.3
2009-04-22 07:23:25 51°14.908 2°54.396 333.9 9.9 329 9.2
2009-04-22 07:23:30 51°14.92 2°54.385 333.6 9.9 327 9.1
2009-04-22 07:23:35 51°14.931 2°54.373 333.1 9.9 327 8.9
2009-04-22 07:23:40 51°14.943 2°54.36 332.5 9.9 326 8.7
2009-04-22 07:23:45 51°14.955 2°54.348 332.5 10.1 326 8.7
2009-04-22 07:23:50 51°14.966 2°54.335 332.4 10.4 326 8.7
2009-04-22 07:23:55 51°14.979 2°54.322 332.7 10.5 327 8.7
2009-04-22 07:24:01 51°14.993 2°54.306 333.1 10.7 326 8.5
2009-04-22 07:24:05 51°15.003 2°54.295 333.2 10.9 327 8.4
2009-04-22 07:24:10 51°15.016 2°54.282 333.8 11 327 8.4
2009-04-22 07:24:15 51°15.029 2°54.269 333.9 11 327 8.4
2009-04-22 07:24:20 51°15.042 2°54.255 333.6 11.1 327 8.6
2009-04-22 07:24:25 51°15.055 2°54.242 333.3 11.2 327 8.3
2009-04-22 07:24:30 51°15.068 2°54.228 333.3 11.2 327 8.3
2009-04-22 07:24:35 51°15.081 2°54.215 333.4 11.3 327 8.4
2009-04-22 07:24:40 51°15.093 2°54.201 333.7 10.8 327 8.4
2009-04-22 07:24:45 51°15.105 2°54.189 333.5 10 326 8.5
2009-04-22 07:24:50 51°15.116 2°54.178 333.1 9.4 326 8.6
2009-04-22 07:24:55 51°15.126 2°54.167 332.7 8.9 326 8.7
2009-04-22 07:25:00 51°15.135 2°54.157 332.6 8.2 325 8.8
2009-04-22 07:25:05 51°15.144 2°54.147 333.1 7.7 326 8.8
2009-04-22 07:25:10 51°15.152 2°54.138 334 7.3 327 8.9
2009-04-22 07:25:15 51°15.161 2°54.131 335.1 6.9 327 8.8
2009-04-22 07:25:20 51°15.168 2°54.123 336 6.5 328 8.9
2009-04-22 07:25:25 51°15.175 2°54.115 336.4 6.3 327 9
2009-04-22 07:25:30 51°15.182 2°54.108 336.9 6 328 9
2009-04-22 07:25:35 51°15.189 2°54.101 337.5 5.8 328 9.2
2009-04-22 07:25:40 51°15.196 2°54.095 337.8 5.6 328 9.3
2009-04-22 07:25:45 51°15.202 2°54.089 337.9 5.4 328 9.3
2009-04-22 07:25:50 51°15.208 2°54.082 338.1 5.3 328 9.3
2009-04-22 07:25:55 51°15.214 2°54.076 338.3 5.1 328 9.2
2009-04-22 07:26:00 51°15.22 2°54.07 338.3 5 327 9.2
2009-04-22 07:26:05 51°15.226 2°54.064 338.3 4.9 327 9.4
2009-04-22 07:26:10 51°15.231 2°54.058 338.2 4.8 326 9.5
2009-04-22 07:26:15 51°15.236 2°54.052 337.9 4.7 326 9.6
2009-04-22 07:26:20 51°15.242 2°54.046 337.6 4.6 326 9.6
2009-04-22 07:26:26 51°15.248 2°54.04 337.4 4.5 325 9.4
2009-04-22 07:26:30 51°15.252 2°54.035 336.9 4.5 325 9.3
2009-04-22 07:26:35 51°15.257 2°54.029 336.4 4.4 324 9.4
2009-04-22 07:26:40 51°15.262 2°54.024 336.1 4.3 323 9.4
2009-04-22 07:26:45 51°15.267 2°54.018 335.6 4.3 322 9.5
2009-04-22 07:26:50 51°15.271 2°54.012 335.4 4.2 322 9.8
2009-04-22 07:26:55 51°15.276 2°54.007 335.1 4.2 322 9.8
2009-04-22 07:27:00 51°15.28 2°54.001 334.9 4.2 321 9.7
2009-04-22 07:27:05 51°15.285 2°53.995 334.9 4.1 320 9.7
2009-04-22 07:27:10 51°15.289 2°53.988 334 4.1 317 9.8
2009-04-22 07:27:15 51°15.293 2°53.982 330.5 4.2 312 9.6
2009-04-22 07:27:20 51°15.296 2°53.974 325.2 4.3 307 9.5
2009-04-22 07:27:25 51°15.299 2°53.966 318.4 4.3 300 9.5
2009-04-22 07:27:30 51°15.302 2°53.957 311.3 4.4 295 9.6
2009-04-22 07:27:35 51°15.303 2°53.948 304.1 4.4 287 9.6
2009-04-22 07:27:40 51°15.305 2°53.938 296.6 4.5 281 9.7
2009-04-22 07:27:45 51°15.305 2°53.928 289.5 4.5 273 9.7
2009-04-22 07:27:50 51°15.304 2°53.918 281.9 4.5 267 9.8
2009-04-22 07:27:55 51°15.303 2°53.908 274.5 4.6 262 9.8
2009-04-22 07:28:00 51°15.302 2°53.898 267.3 4.6 255 9.8
2009-04-22 07:28:05 51°15.299 2°53.888 260.3 4.6 249 9.9
2009-04-22 07:28:10 51°15.296 2°53.879 252.9 4.7 243 9.9
2009-04-22 07:28:15 51°15.293 2°53.87 245.9 4.7 238 10
2009-04-22 07:28:20 51°15.288 2°53.862 238.8 4.8 230 9.9
2009-04-22 07:28:25 51°15.284 2°53.854 231.6 4.8 225 9.9
2009-04-22 07:28:30 51°15.279 2°53.847 224 4.9 219 9.9
2009-04-22 07:28:35 51°15.273 2°53.841 217 4.9 216 9.9
2009-04-22 07:28:40 51°15.267 2°53.836 210 5.3 209 9.9
2009-04-22 07:28:45 51°15.259 2°53.83 205.3 5.8 206 10
2009-04-22 07:28:50 51°15.251 2°53.826 199.9 6.3 198 10
2009-04-22 07:28:55 51°15.242 2°53.822 194.5 6.7 195 9.9
2009-04-22 07:29:00 51°15.233 2°53.819 188.9 7.1 189 9.9
2009-04-22 07:29:06 51°15.22 2°53.816 184.7 7.6 189 9.9
2009-04-22 07:29:10 51°15.211 2°53.815 182.7 7.9 186 9.9
2009-04-22 07:29:15 51°15.2 2°53.814 181 8.4 184 9.9
2009-04-22 07:29:20 51°15.187 2°53.813 180.6 8.7 185 9.8
2009-04-22 07:29:25 51°15.175 2°53.813 178.8 9 179 9.8
2009-04-22 07:29:30 51°15.162 2°53.813 177.3 9.4 180 9.8
2009-04-22 07:29:35 51°15.148 2°53.813 176.5 9.6 179 9.9
2009-04-22 07:29:40 51°15.135 2°53.815 174.3 10 176 9.9
2009-04-22 07:29:45 51°15.12 2°53.816 173.2 10.3 176 9.8
2009-04-22 07:29:50 51°15.106 2°53.818 172.8 10.5 176 9.9
2009-04-22 07:29:55 51°15.091 2°53.821 172.1 10.6 174 10.1
2009-04-22 07:30:00 51°15.076 2°53.824 170.7 10.9 173 10.1
2009-04-22 07:30:05 51°15.061 2°53.826 170.1 11.1 173 10
2009-04-22 07:30:10 51°15.045 2°53.83 170.2 11.2 172 9.9
2009-04-22 07:30:15 51°15.03 2°53.834 169.4 11.3 171 10
2009-04-22 07:30:21 51°15.011 2°53.838 169.2 11.4 172 10
2009-04-22 07:30:25 51°14.998 2°53.841 169.2 11.5 171 10
2009-04-22 07:30:30 51°14.982 2°53.845 169.2 11.6 171 9.7
2009-04-22 07:30:35 51°14.966 2°53.849 169.4 11.6 171 9.7
2009-04-22 07:30:40 51°14.95 2°53.853 169.2 11.6 171 9.9
2009-04-22 07:30:45 51°14.935 2°53.858 166.7 11.5 168 9.7
2009-04-22 07:30:50 51°14.919 2°53.863 164.8 11.4 168 9.7
2009-04-22 07:30:55 51°14.904 2°53.87 163.8 11.6 166 9.9
2009-04-22 07:31:00 51°14.888 2°53.876 162 11.7 165 9.8
2009-04-22 07:31:05 51°14.873 2°53.884 161 11.7 163 9.9
2009-04-22 07:31:10 51°14.857 2°53.891 160.4 11.7 163 9.9
2009-04-22 07:31:15 51°14.842 2°53.898 159.6 11.6 163 9.9
2009-04-22 07:31:20 51°14.826 2°53.906 158.8 11.6 162 9.8
2009-04-22 07:31:25 51°14.811 2°53.913 159.4 11.7 164 9.9
2009-04-22 07:31:30 51°14.795 2°53.922 159 12 161 10
2009-04-22 07:31:35 51°14.779 2°53.93 158.3 12.1 163 10.1
2009-04-22 07:31:40 51°14.763 2°53.938 158.5 12.1 162 10.2
2009-04-22 07:31:45 51°14.747 2°53.946 159 12.1 164 10.5
2009-04-22 07:31:50 51°14.73 2°53.954 159.4 12.2 163 10.8
2009-04-22 07:31:55 51°14.714 2°53.96 161.1 12.3 166 11
2009-04-22 07:32:00 51°14.697 2°53.967 162.7 12.5 166 11
2009-04-22 07:32:05 51°14.68 2°53.972 164.1 12.5 169 11
2009-04-22 07:32:10 51°14.663 2°53.977 165.9 12.4 170 11.2
2009-04-22 07:32:15 51°14.646 2°53.98 168.5 12.4 173 11.3
2009-04-22 07:32:20 51°14.629 2°53.982 170.9 12.3 175 11.1
2009-04-22 07:32:25 51°14.612 2°53.983 173.5 12.4 178 11
2009-04-22 07:32:30 51°14.595 2°53.984 175.9 12.4 180 11
2009-04-22 07:32:35 51°14.577 2°53.982 179 12.4 183 11.5
2009-04-22 07:32:40 51°14.56 2°53.98 181.3 12.4 184 11
2009-04-22 07:32:45 51°14.543 2°53.976 183.5 12.3 188 10.5
2009-04-22 07:32:50 51°14.527 2°53.97 187.1 12.2 191 10.3
2009-04-22 07:32:55 51°14.51 2°53.964 190 12.2 194 10.2
2009-04-22 07:33:00 51°14.494 2°53.957 192.2 12.3 195 10.2
2009-04-22 07:33:05 51°14.478 2°53.947 196.6 12.3 201 10.1
2009-04-22 07:33:10 51°14.462 2°53.937 199.1 12.3 202 10.1
2009-04-22 07:33:15 51°14.446 2°53.925 201.6 12.3 205 10.1
2009-04-22 07:33:20 51°14.431 2°53.914 204.3 12.4 206 10
2009-04-22 07:33:26 51°14.413 2°53.897 206.6 12.4 210 10
2009-04-22 07:33:30 51°14.401 2°53.886 208.4 12.3 210 10.1
2009-04-22 07:33:35 51°14.386 2°53.873 209 12.3 211 10
2009-04-22 07:33:40 51°14.372 2°53.857 211.9 12.5 215 10
2009-04-22 07:33:46 51°14.355 2°53.837 214.9 12.5 217 10
2009-04-22 07:33:50 51°14.345 2°53.823 217 12.4 218 9.9
2009-04-22 07:33:55 51°14.332 2°53.805 218.8 12.5 220 9.9
2009-04-22 07:34:00 51°14.319 2°53.786 221 12.6 223 9.9
2009-04-22 07:34:05 51°14.306 2°53.768 222.1 12.6 222 10
2009-04-22 07:34:10 51°14.293 2°53.749 223 12.5 224 9.9
2009-04-22 07:34:15 51°14.281 2°53.729 223.6 12.6 224 9.8
2009-04-22 07:34:20 51°14.268 2°53.71 223.9 12.6 225 9.8
2009-04-22 07:34:25 51°14.257 2°53.689 225.9 12.5 230 9.8
2009-04-22 07:34:30 51°14.245 2°53.668 228.5 12.5 227 9.8
2009-04-22 07:34:35 51°14.234 2°53.647 229.7 12.5 230 9.8
2009-04-22 07:34:41 51°14.221 2°53.621 231.3 12.5 230 9.8
2009-04-22 07:34:45 51°14.213 2°53.603 232.2 12.5 233 9.8
2009-04-22 07:34:50 51°14.202 2°53.581 232.8 12.5 232 9.9
2009-04-22 07:34:55 51°14.192 2°53.559 233.6 12.6 233 9.9
2009-04-22 07:35:00 51°14.181 2°53.536 234.5 12.6 234 9.9
2009-04-22 07:35:05 51°14.171 2°53.514 234.8 12.5 234 9.9
2009-04-22 07:35:10 51°14.161 2°53.492 234.8 12.6 234 9.9
2009-04-22 07:35:15 51°14.151 2°53.469 236 12.6 235 10
2009-04-22 07:35:21 51°14.139 2°53.442 235.8 12.5 234 10
2009-04-22 07:35:25 51°14.131 2°53.423 235.9 12.6 235 10
2009-04-22 07:35:30 51°14.121 2°53.401 236 12.6 234 10.1
2009-04-22 07:35:35 51°14.11 2°53.378 235.6 12.6 234 10.1
2009-04-22 07:35:40 51°14.1 2°53.356 234.9 12.6 233 10.1
2009-04-22 07:35:46 51°14.088 2°53.329 234.8 12.6 234 10.1
2009-04-22 07:35:50 51°14.079 2°53.311 234.8 12.6 233 10.1
2009-04-22 07:35:55 51°14.069 2°53.288 235 12.6 235 10.1
2009-04-22 07:36:00 51°14.058 2°53.266 235.4 12.6 233 10.2
2009-04-22 07:36:05 51°14.048 2°53.243 235.3 12.6 235 10.1
2009-04-22 07:36:10 51°14.038 2°53.221 235.6 12.6 234 10.2
2009-04-22 07:36:15 51°14.028 2°53.198 235.2 12.6 234 10.2
2009-04-22 07:36:20 51°14.018 2°53.175 235.3 12.7 234 10.2
2009-04-22 07:36:25 51°14.007 2°53.153 235.4 12.6 233 10.2
2009-04-22 07:36:30 51°13.996 2°53.131 234.6 12.6 233 10.2
2009-04-22 07:36:35 51°13.986 2°53.108 234.6 12.6 234 10.2
2009-04-22 07:36:40 51°13.976 2°53.086 234.6 12.6 233 10.3
2009-04-22 07:36:45 51°13.965 2°53.064 234.6 12.6 233 10.3
2009-04-22 07:36:50 51°13.955 2°53.042 234.2 12.6 233 10.3
2009-04-22 07:36:55 51°13.944 2°53.019 234.3 12.6 233 10.3
2009-04-22 07:37:00 51°13.934 2°52.997 234.1 12.6 233 10.3
2009-04-22 07:37:05 51°13.923 2°52.975 233.5 12.7 231 10.3
2009-04-22 07:37:10 51°13.912 2°52.953 234.2 12.6 234 10.4
2009-04-22 07:37:15 51°13.901 2°52.931 233.8 12.7 231 10.3
2009-04-22 07:37:21 51°13.889 2°52.904 233.1 12.6 233 10.4
2009-04-22 07:37:25 51°13.88 2°52.887 233.6 12.6 232 10.4
2009-04-22 07:37:30 51°13.869 2°52.865 233.4 12.6 232 10.4
2009-04-22 07:37:35 51°13.858 2°52.843 233.2 12.6 232 10.3
2009-04-22 07:37:40 51°13.848 2°52.821 232.9 12.6 232 10.3
2009-04-22 07:37:45 51°13.836 2°52.799 232.6 12.7 231 10.4
2009-04-22 07:37:50 51°13.826 2°52.777 232.7 12.7 232 10.4
2009-04-22 07:37:55 51°13.815 2°52.755 232.5 12.7 231 10.4
2009-04-22 07:37:59 51°13.806 2°52.738 232.4 12.7 232 10.5
2009-04-22 07:38:05 51°13.793 2°52.711 232.8 12.7 231 10.4
2009-04-22 07:38:10 51°13.782 2°52.689 232 12.7 232 10.4
2009-04-22 07:38:15 51°13.771 2°52.667 232.3 12.6 232 10.5
2009-04-22 07:38:20 51°13.76 2°52.646 232.3 12.6 231 10.4
2009-04-22 07:38:25 51°13.749 2°52.624 231.7 12.6 232 10.4
2009-04-22 07:38:30 51°13.737 2°52.603 231.5 12.7 230 10.4
2009-04-22 07:38:35 51°13.727 2°52.581 231.8 12.6 232 10.4
2009-04-22 07:38:40 51°13.715 2°52.56 231.3 12.7 229 10.4
2009-04-22 07:38:45 51°13.704 2°52.537 231.4 12.7 233 10.3
2009-04-22 07:38:50 51°13.693 2°52.516 232.1 12.7 229 10.4
2009-04-22 07:38:55 51°13.682 2°52.494 231 12.7 231 10.3
2009-04-22 07:39:00 51°13.671 2°52.473 231.5 12.7 230 10.3
2009-04-22 07:39:05 51°13.66 2°52.451 231.6 12.7 231 10.4
2009-04-22 07:39:10 51°13.648 2°52.43 231.2 12.7 230 10.4
2009-04-22 07:39:15 51°13.637 2°52.408 230.9 12.7 230 10.4
2009-04-22 07:39:20 51°13.626 2°52.386 231.6 12.6 230 10.5
2009-04-22 07:39:25 51°13.614 2°52.366 230.8 12.4 230 10.4
2009-04-22 07:39:30 51°13.604 2°52.344 231.9 12.2 233 10.4
2009-04-22 07:39:35 51°13.594 2°52.323 233.1 12 231 10.4
2009-04-22 07:39:40 51°13.584 2°52.303 233.4 11.6 233 10.5
2009-04-22 07:39:45 51°13.574 2°52.283 232.8 11.5 231 10.4
2009-04-22 07:39:50 51°13.565 2°52.263 233.4 11.3 233 10.4
2009-04-22 07:39:55 51°13.555 2°52.244 233.5 11.1 231 10.5
2009-04-22 07:40:00 51°13.546 2°52.224 233.5 10.9 234 10.5
2009-04-22 07:40:05 51°13.537 2°52.205 233.8 10.7 233 10.4
2009-04-22 07:40:10 51°13.529 2°52.185 236.3 10.4 239 10.5
2009-04-22 07:40:15 51°13.521 2°52.167 238.5 10.3 235 10.4
2009-04-22 07:40:20 51°13.514 2°52.147 240 10.1 241 10.5
2009-04-22 07:40:26 51°13.505 2°52.125 240.9 10 238 10.4
2009-04-22 07:40:30 51°13.5 2°52.109 241.8 9.8 241 10.4
2009-04-22 07:40:35 51°13.493 2°52.091 243.2 9.7 240 10.5
2009-04-22 07:40:40 51°13.487 2°52.072 244 9.6 242 10.4
2009-04-22 07:40:45 51°13.481 2°52.053 244.4 9.5 242 10.4
2009-04-22 07:40:50 51°13.475 2°52.035 245.3 9.3 243 10.4
2009-04-22 07:40:55 51°13.47 2°52.016 246 9.2 244 10.4
2009-04-22 07:41:00 51°13.464 2°51.999 246 9.1 243 10.4
2009-04-22 07:41:05 51°13.458 2°51.981 246.1 8.9 244 10.5
2009-04-22 07:41:10 51°13.453 2°51.963 246.1 8.8 243 10.5
2009-04-22 07:41:15 51°13.448 2°51.946 245.9 8.7 244 10.5
2009-04-22 07:41:20 51°13.442 2°51.929 246.1 8.6 244 10.5
2009-04-22 07:41:25 51°13.437 2°51.912 245.9 8.5 243 10.6
2009-04-22 07:41:30 51°13.431 2°51.895 245.9 8.5 244 10.6
2009-04-22 07:41:35 51°13.426 2°51.878 245.7 8.5 244 10.6
2009-04-22 07:41:40 51°13.421 2°51.862 246.1 8.4 245 10.6
2009-04-22 07:41:45 51°13.416 2°51.845 246.5 8.4 244 10.7
2009-04-22 07:41:50 51°13.411 2°51.828 246.9 8.4 245 10.7
2009-04-22 07:41:55 51°13.406 2°51.812 247.3 8.3 245 10.7
2009-04-22 07:42:01 51°13.4 2°51.792 247.3 8.2 245 10.7
2009-04-22 07:42:05 51°13.396 2°51.779 247.1 8.1 244 10.7
2009-04-22 07:42:10 51°13.391 2°51.763 246.6 8 244 10.8
2009-04-22 07:42:15 51°13.387 2°51.747 246.6 7.9 244 10.8
2009-04-22 07:42:20 51°13.382 2°51.732 246.6 7.8 244 10.8
2009-04-22 07:42:26 51°13.376 2°51.713 246.8 7.7 244 10.8
2009-04-22 07:42:30 51°13.372 2°51.701 247 7.6 244 10.8
2009-04-22 07:42:35 51°13.368 2°51.686 246.8 7.5 244 10.8
2009-04-22 07:42:39 51°13.364 2°51.675 246.9 7.4 244 10.9
2009-04-22 07:42:46 51°13.358 2°51.654 246.9 7.3 244 10.8
2009-04-22 07:42:50 51°13.354 2°51.642 246.9 7.3 244 10.9
2009-04-22 07:42:55 51°13.35 2°51.628 246.7 7.2 244 10.8
2009-04-22 07:43:00 51°13.345 2°51.614 246.6 7.2 243 10.8
2009-04-22 07:43:05 51°13.341 2°51.6 246.5 7.1 244 10.9
2009-04-22 07:43:10 51°13.337 2°51.586 246.8 7.1 243 10.8
2009-04-22 07:43:15 51°13.332 2°51.572 246.8 7.1 244 10.9
2009-04-22 07:43:20 51°13.328 2°51.558 246.9 6.8 243 10.9
2009-04-22 07:43:25 51°13.324 2°51.545 246.8 6.6 243 10.9
2009-04-22 07:43:30 51°13.32 2°51.533 246.5 6.4 243 10.9
2009-04-22 07:43:35 51°13.315 2°51.52 245.9 6.3 243 11
2009-04-22 07:43:40 51°13.312 2°51.508 246 6.1 242 10.9
2009-04-22 07:43:45 51°13.308 2°51.497 245.7 5.9 243 10.9
2009-04-22 07:43:50 51°13.304 2°51.485 245.9 5.9 242 10.9
2009-04-22 07:43:55 51°13.3 2°51.474 245.9 5.8 243 10.9
2009-04-22 07:44:00 51°13.297 2°51.463 246.1 5.6 243 11
2009-04-22 07:44:05 51°13.293 2°51.452 246.5 5.5 242 11
2009-04-22 07:44:10 51°13.29 2°51.441 246.6 5.5 243 11
2009-04-22 07:44:15 51°13.286 2°51.43 246.8 5.4 243 11
2009-04-22 07:44:20 51°13.283 2°51.42 246.9 5.3 243 10.9
2009-04-22 07:44:25 51°13.28 2°51.409 247 5.3 243 11
2009-04-22 07:44:30 51°13.276 2°51.399 247 5.2 243 10.9
2009-04-22 07:44:35 51°13.273 2°51.389 247 5.1 243 11
2009-04-22 07:44:40 51°13.27 2°51.379 246.9 4.9 242 10.9
2009-04-22 07:44:46 51°13.266 2°51.368 246.9 4.7 243 11
2009-04-22 07:44:50 51°13.264 2°51.361 247 4.5 241 10.9
2009-04-22 07:44:55 51°13.261 2°51.352 247.1 4.5 244 10.9
2009-04-22 07:45:00 51°13.258 2°51.344 247.5 4.3 242 10.9
2009-04-22 07:45:05 51°13.256 2°51.335 248 4.1 245 10.9
2009-04-22 07:45:10 51°13.253 2°51.327 248.8 4 241 10.9
2009-04-22 07:45:15 51°13.251 2°51.32 249.6 3.8 247 11
2009-04-22 07:45:20 51°13.249 2°51.313 250.9 3.6 244 11
2009-04-22 07:45:25 51°13.247 2°51.306 252.1 3.3 248 11
2009-04-22 07:45:30 51°13.245 2°51.3 254.1 3 244 11
2009-04-22 07:45:35 51°13.244 2°51.294 256.2 2.8 249 11
2009-04-22 07:45:40 51°13.242 2°51.289 258.4 2.5 246 11
2009-04-22 07:45:45 51°13.241 2°51.284 260.8 2.2 249 11
2009-04-22 07:45:50 51°13.24 2°51.28 263.6 1.9 247 11
2009-04-22 07:45:55 51°13.239 2°51.277 266.5 1.7 245 11
2009-04-22 07:46:00 51°13.238 2°51.274 269.4 1.4 240 11
2009-04-22 07:46:05 51°13.237 2°51.272 272.1 1.2 236 11
2009-04-22 07:46:10 51°13.236 2°51.27 274.5 1 227 11
2009-04-22 07:46:15 51°13.235 2°51.269 275.8 0.9 219 11
2009-04-22 07:46:21 51°13.234 2°51.267 276.7 0.9 219 11
2009-04-22 07:46:25 51°13.233 2°51.267 277.2 0.9 217 11
2009-04-22 07:46:30 51°13.232 2°51.265 277.2 0.8 220 11
2009-04-22 07:46:35 51°13.232 2°51.264 276.7 0.8 218 11
2009-04-22 07:46:40 51°13.231 2°51.263 276.1 0.8 216 11
2009-04-22 07:46:45 51°13.23 2°51.262 275.4 0.9 212 11
2009-04-22 07:46:50 51°13.229 2°51.261 274.7 0.8 215 11
2009-04-22 07:46:55 51°13.228 2°51.26 273.7 0.9 214 10.9
2009-04-22 07:46:59 51°13.227 2°51.259 272.4 0.8 214 11
2009-04-22 07:47:05 51°13.225 2°51.258 271.4 0.9 216 11
2009-04-22 07:47:10 51°13.225 2°51.256 270.1 0.9 216 11
2009-04-22 07:47:15 51°13.223 2°51.255 269.4 1 214 11.1
2009-04-22 07:47:20 51°13.222 2°51.254 268.6 0.9 212 11
2009-04-22 07:47:25 51°13.221 2°51.253 267.8 0.9 216 11
2009-04-22 07:47:30 51°13.22 2°51.252 267.2 0.9 213 11.1
2009-04-22 07:47:35 51°13.219 2°51.251 266.7 1 212 11.1
2009-04-22 07:47:40 51°13.218 2°51.25 266.3 0.9 213 11.1
2009-04-22 07:47:45 51°13.217 2°51.248 265.7 0.9 213 11
2009-04-22 07:47:50 51°13.216 2°51.247 265.4 0.9 216 11
2009-04-22 07:47:55 51°13.215 2°51.246 265 1 209 11
2009-04-22 07:48:00 51°13.214 2°51.245 264.4 0.9 214 11
2009-04-22 07:48:05 51°13.213 2°51.244 263.9 0.9 213 11
2009-04-22 07:48:10 51°13.212 2°51.243 263.6 0.9 214 11
2009-04-22 07:48:15 51°13.211 2°51.242 263.1 1 208 11.1
2009-04-22 07:48:20 51°13.21 2°51.241 262.7 0.9 215 11
2009-04-22 07:48:25 51°13.209 2°51.24 262.2 1 207 10.9
2009-04-22 07:48:30 51°13.208 2°51.239 261.6 0.9 213 10.9
2009-04-22 07:48:35 51°13.206 2°51.238 260.9 0.9 213 10.9
2009-04-22 07:48:40 51°13.205 2°51.237 260.8 0.8 212 10.9
2009-04-22 07:48:45 51°13.204 2°51.236 260.3 0.9 208 10.9
2009-04-22 07:48:50 51°13.203 2°51.234 259.9 0.8 214 11
2009-04-22 07:48:55 51°13.202 2°51.234 259.8 0.9 211 11
2009-04-22 07:49:00 51°13.201 2°51.233 259.3 0.8 214 11
2009-04-22 07:49:05 51°13.2 2°51.231 259 0.9 209 11
2009-04-22 07:49:10 51°13.199 2°51.231 258.6 0.9 210 11.1
2009-04-22 07:49:15 51°13.198 2°51.23 258.5 0.9 207 11.1
2009-04-22 07:49:20 51°13.197 2°51.229 258.4 0.9 214 11.1
2009-04-22 07:49:26 51°13.196 2°51.228 258.5 1 205 11.1
2009-04-22 07:49:30 51°13.195 2°51.227 258.4 0.8 212 11.1
2009-04-22 07:49:35 51°13.194 2°51.226 258.3 0.9 208 11
2009-04-22 07:49:40 51°13.193 2°51.225 258.3 0.8 211 11
2009-04-22 07:49:45 51°13.192 2°51.224 258.3 0.9 207 11
2009-04-22 07:49:50 51°13.191 2°51.223 258.3 0.8 210 11
2009-04-22 07:49:55 51°13.19 2°51.222 258.2 0.9 211 11
2009-04-22 07:50:00 51°13.188 2°51.221 258.1 0.8 215 11
2009-04-22 07:50:05 51°13.187 2°51.22 258.3 1 206 11
2009-04-22 07:50:10 51°13.186 2°51.219 258.3 0.8 210 11
2009-04-22 07:50:15 51°13.185 2°51.218 258.4 0.8 210 10.9
2009-04-22 07:50:20 51°13.184 2°51.218 258.4 0.8 213 10.9
2009-04-22 07:50:25 51°13.183 2°51.217 258.4 0.9 205 11
2009-04-22 07:50:30 51°13.182 2°51.216 258.3 0.8 214 11
2009-04-22 07:50:35 51°13.181 2°51.215 258.1 0.9 206 11
2009-04-22 07:50:40 51°13.18 2°51.214 258.1 0.8 213 11
2009-04-22 07:50:45 51°13.179 2°51.213 258 0.9 209 11
2009-04-22 07:50:50 51°13.178 2°51.212 258 0.8 212 11.1
2009-04-22 07:50:55 51°13.177 2°51.211 258 0.9 206 11
2009-04-22 07:51:00 51°13.175 2°51.21 257.7 0.9 208 11
2009-04-22 07:51:06 51°13.174 2°51.209 257.7 0.9 207 10.9
2009-04-22 07:51:10 51°13.173 2°51.208 257.7 0.9 209 10.9
2009-04-22 07:51:15 51°13.172 2°51.207 257.7 0.9 208 10.9
2009-04-22 07:51:20 51°13.171 2°51.207 257.5 0.9 207 10.9
2009-04-22 07:51:25 51°13.17 2°51.206 257.3 0.9 207 11
2009-04-22 07:51:30 51°13.169 2°51.205 257.3 0.9 206 10.9
2009-04-22 07:51:35 51°13.168 2°51.204 257 0.9 209 11
2009-04-22 07:51:40 51°13.167 2°51.203 257 0.9 209 11
2009-04-22 07:51:45 51°13.166 2°51.202 257 0.9 207 11
2009-04-22 07:51:50 51°13.165 2°51.201 257 0.9 211 11
2009-04-22 07:51:55 51°13.164 2°51.2 257.1 0.9 207 11
2009-04-22 07:52:00 51°13.163 2°51.199 257.3 0.8 211 11
2009-04-22 07:52:05 51°13.161 2°51.198 257.4 0.8 212 11
2009-04-22 07:52:10 51°13.16 2°51.197 257.6 0.9 207 11
2009-04-22 07:52:15 51°13.159 2°51.196 257.7 0.8 214 11.1
2009-04-22 07:52:20 51°13.158 2°51.195 257.9 0.9 208 11
2009-04-22 07:52:25 51°13.157 2°51.194 258.1 0.8 217 11
2009-04-22 07:52:30 51°13.156 2°51.193 258.3 1 206 11
2009-04-22 07:52:35 51°13.155 2°51.192 258.5 0.8 215 11
2009-04-22 07:52:40 51°13.154 2°51.191 258.9 0.9 208 11.1
2009-04-22 07:52:45 51°13.153 2°51.19 259 0.8 214 11
2009-04-22 07:52:50 51°13.152 2°51.189 259.2 0.9 208 11
2009-04-22 07:52:55 51°13.151 2°51.188 259.2 0.8 212 11
2009-04-22 07:53:00 51°13.149 2°51.187 259.2 0.9 208 11
2009-04-22 07:53:06 51°13.148 2°51.186 258.9 0.9 212 11
2009-04-22 07:53:10 51°13.147 2°51.185 259 0.9 212 11
2009-04-22 07:53:15 51°13.146 2°51.184 258.7 0.9 211 11
2009-04-22 07:53:20 51°13.145 2°51.183 258.8 0.9 211 11
2009-04-22 07:53:25 51°13.144 2°51.183 258.8 0.9 209 11.1
2009-04-22 07:53:30 51°13.143 2°51.181 258.8 0.8 217 11
2009-04-22 07:53:35 51°13.142 2°51.18 258.7 0.9 209 11
2009-04-22 07:53:40 51°13.141 2°51.179 258.7 0.8 214 11
2009-04-22 07:53:46 51°13.14 2°51.178 258.7 0.9 208 11
2009-04-22 07:53:50 51°13.139 2°51.177 259 0.8 216 11.1
2009-04-22 07:53:55 51°13.138 2°51.176 259.2 0.9 211 11.1
2009-04-22 07:54:00 51°13.137 2°51.176 259.5 0.9 212 11.1
2009-04-22 07:54:05 51°13.136 2°51.174 259.9 0.8 216 11.1
2009-04-22 07:54:10 51°13.135 2°51.174 260.3 0.8 212 11.1
2009-04-22 07:54:15 51°13.134 2°51.173 260.6 0.8 215 11.1
2009-04-22 07:54:20 51°13.133 2°51.172 260.9 0.9 210 11
2009-04-22 07:54:25 51°13.132 2°51.171 261 0.8 213 11
2009-04-22 07:54:30 51°13.131 2°51.17 261.4 0.8 210 11
2009-04-22 07:54:35 51°13.13 2°51.169 261.4 0.8 212 11
2009-04-22 07:54:40 51°13.129 2°51.168 261.5 0.9 209 11
2009-04-22 07:54:45 51°13.128 2°51.167 261.7 0.8 215 11
2009-04-22 07:54:50 51°13.127 2°51.166 261.9 0.8 208 10.9
2009-04-22 07:54:55 51°13.126 2°51.165 262 0.8 215 11
2009-04-22 07:55:01 51°13.125 2°51.164 262.1 0.9 210 11
2009-04-22 07:55:05 51°13.124 2°51.163 262.3 0.8 210 11
2009-04-22 07:55:10 51°13.123 2°51.162 262.5 0.9 210 10.9
2009-04-22 07:55:15 51°13.122 2°51.161 262.6 0.8 213 10.9
2009-04-22 07:55:20 51°13.121 2°51.16 262.5 0.9 210 11
2009-04-22 07:55:26 51°13.12 2°51.159 262.6 0.8 213 11
2009-04-22 07:55:30 51°13.119 2°51.158 262.8 0.8 213 11
2009-04-22 07:55:35 51°13.118 2°51.157 262.9 0.8 215 10.9
2009-04-22 07:55:40 51°13.117 2°51.156 263 0.8 211 10.9
2009-04-22 07:55:46 51°13.116 2°51.155 263.2 0.8 212 10.9
2009-04-22 07:55:50 51°13.115 2°51.155 263.3 0.8 213 10.9
2009-04-22 07:55:55 51°13.115 2°51.154 263.5 0.7 216 10.9
2009-04-22 07:56:00 51°13.113 2°51.153 263.6 0.8 207 10.9
2009-04-22 07:56:05 51°13.113 2°51.152 263.7 0.8 211 10.9
2009-04-22 07:56:10 51°13.112 2°51.151 263.9 0.7 210 10.9
2009-04-22 07:56:15 51°13.111 2°51.15 264.1 0.7 211 10.9
2009-04-22 07:56:20 51°13.11 2°51.149 264.2 0.8 210 10.9
2009-04-22 07:56:26 51°13.109 2°51.148 264 0.7 214 10.9
2009-04-22 07:56:30 51°13.108 2°51.148 264 0.7 210 10.9
2009-04-22 07:56:35 51°13.107 2°51.147 263.9 0.7 214 10.9
2009-04-22 07:56:40 51°13.106 2°51.146 263.9 0.8 206 10.9
2009-04-22 07:56:45 51°13.105 2°51.145 264 0.7 214 11
2009-04-22 07:56:50 51°13.104 2°51.144 264.2 0.8 211 10.9
2009-04-22 07:56:55 51°13.103 2°51.143 264.2 0.7 213 10.9
2009-04-22 07:57:00 51°13.102 2°51.143 264.3 0.8 208 10.9
2009-04-22 07:57:05 51°13.101 2°51.142 264.3 0.7 211 10.9
2009-04-22 07:57:10 51°13.1 2°51.141 264.6 0.6 218 10.9
2009-04-22 07:57:15 51°13.1 2°51.14 264.6 0.8 207 10.9
2009-04-22 07:57:20 51°13.099 2°51.139 264.8 0.7 211 10.9
2009-04-22 07:57:25 51°13.098 2°51.138 264.8 0.8 208 10.9
2009-04-22 07:57:30 51°13.097 2°51.138 264.9 0.7 211 11
2009-04-22 07:57:35 51°13.096 2°51.137 265 0.7 212 10.9
2009-04-22 07:57:41 51°13.095 2°51.136 265 0.7 209 10.9
2009-04-22 07:57:45 51°13.094 2°51.135 265 0.7 214 10.9
2009-04-22 07:57:50 51°13.093 2°51.134 265 0.8 207 10.9
2009-04-22 07:57:55 51°13.092 2°51.134 265.1 0.7 213 10.9
2009-04-22 07:58:00 51°13.092 2°51.133 265.2 0.8 207 10.9
2009-04-22 07:58:06 51°13.091 2°51.132 265.3 0.6 219 10.9
2009-04-22 07:58:10 51°13.09 2°51.131 265.4 0.8 206 10.9
2009-04-22 07:58:15 51°13.089 2°51.13 265.8 0.6 214 10.9
2009-04-22 07:58:20 51°13.088 2°51.129 266.1 0.8 208 10.9
2009-04-22 07:58:26 51°13.087 2°51.129 266.6 0.6 215 10.9
2009-04-22 07:58:30 51°13.086 2°51.128 267.1 0.8 204 10.8
2009-04-22 07:58:35 51°13.086 2°51.127 267.4 0.7 212 10.8
2009-04-22 07:58:40 51°13.085 2°51.126 267.7 0.8 206 10.9
2009-04-22 07:58:45 51°13.084 2°51.126 268.1 0.7 213 10.9
2009-04-22 07:58:50 51°13.083 2°51.125 268.6 0.7 209 10.9
2009-04-22 07:58:55 51°13.082 2°51.124 268.7 0.7 212 10.9
2009-04-22 07:59:00 51°13.081 2°51.123 269 0.7 210 10.9
2009-04-22 07:59:05 51°13.08 2°51.123 269.1 0.6 216 10.8
2009-04-22 07:59:10 51°13.08 2°51.122 269.4 0.7 210 10.8
2009-04-22 07:59:15 51°13.079 2°51.121 269.5 0.6 211 10.8
2009-04-22 07:59:20 51°13.078 2°51.12 269.8 0.6 210 10.8
2009-04-22 07:59:25 51°13.077 2°51.119 269.7 0.7 209 10.8
2009-04-22 07:59:30 51°13.076 2°51.119 269.9 0.6 212 10.8
2009-04-22 07:59:35 51°13.076 2°51.118 269.8 0.6 212 10.8
2009-04-22 07:59:40 51°13.075 2°51.117 269.8 0.7 211 10.9
2009-04-22 07:59:45 51°13.074 2°51.117 269.8 0.7 206 10.8
2009-04-22 07:59:50 51°13.073 2°51.116 269.8 0.6 213 10.9
2009-04-22 07:59:55 51°13.072 2°51.115 269.9 0.8 205 10.9
2009-04-22 08:00:00 51°13.071 2°51.114 269.9 0.6 211 10.9
2009-04-22 08:00:06 51°13.07 2°51.114 270 0.7 203 10.9
2009-04-22 08:00:10 51°13.069 2°51.113 270 0.6 209 10.9
2009-04-22 08:00:15 51°13.069 2°51.112 270.1 0.7 209 10.9
2009-04-22 08:00:21 51°13.068 2°51.111 270.1 0.6 209 10.9
2009-04-22 08:00:26 51°13.067 2°51.111 270.2 0.7 205 10.8
2009-04-22 08:00:30 51°13.066 2°51.11 270.4 0.6 209 10.9
2009-04-22 08:00:35 51°13.065 2°51.109 270.4 0.7 202 10.9
2009-04-22 08:00:40 51°13.065 2°51.108 270.4 0.7 213 10.9
2009-04-22 08:00:46 51°13.064 2°51.108 270.4 0.7 204 10.9
2009-04-22 08:00:50 51°13.063 2°51.107 270.1 0.6 206 10.9
2009-04-22 08:00:55 51°13.062 2°51.107 270.1 0.7 202 10.8
2009-04-22 08:01:00 51°13.061 2°51.106 270 0.6 207 10.9
2009-04-22 08:01:06 51°13.06 2°51.105 270 0.7 203 10.8
2009-04-22 08:01:10 51°13.06 2°51.105 269.7 0.6 207 10.8
2009-04-22 08:01:15 51°13.059 2°51.104 269.6 0.7 204 10.8
2009-04-22 08:01:20 51°13.058 2°51.103 269.4 0.6 209 10.9
2009-04-22 08:01:25 51°13.057 2°51.103 269.5 0.7 204 10.9
2009-04-22 08:01:30 51°13.056 2°51.102 269.4 0.6 206 10.9
2009-04-22 08:01:35 51°13.055 2°51.102 269.4 0.7 203 10.9
2009-04-22 08:01:40 51°13.054 2°51.101 269.2 0.7 205 10.9
2009-04-22 08:01:45 51°13.054 2°51.1 269.4 0.7 205 10.9
2009-04-22 08:01:50 51°13.053 2°51.1 269.5 0.7 205 10.9
2009-04-22 08:01:55 51°13.052 2°51.099 269.6 0.7 206 10.8
2009-04-22 08:02:00 51°13.051 2°51.098 269.7 0.7 202 10.8
2009-04-22 08:02:06 51°13.05 2°51.098 269.7 0.7 205 10.9
2009-04-22 08:02:10 51°13.05 2°51.097 269.7 0.7 201 10.8
2009-04-22 08:02:15 51°13.049 2°51.097 269.7 0.7 204 10.9
2009-04-22 08:02:20 51°13.048 2°51.096 269.6 0.7 201 10.9
2009-04-22 08:02:25 51°13.047 2°51.095 269.6 0.6 209 10.9
2009-04-22 08:02:30 51°13.046 2°51.095 269.5 0.7 202 10.9
2009-04-22 08:02:35 51°13.045 2°51.094 269.4 0.6 204 10.9
2009-04-22 08:02:40 51°13.045 2°51.094 269.4 0.7 201 10.9
2009-04-22 08:02:45 51°13.044 2°51.093 269.3 0.5 211 10.9
2009-04-22 08:02:50 51°13.043 2°51.093 269 0.7 199 10.9
2009-04-22 08:02:55 51°13.042 2°51.092 268.7 0.6 205 10.9
2009-04-22 08:03:00 51°13.041 2°51.092 268.6 0.7 202 10.9
2009-04-22 08:03:06 51°13.04 2°51.091 268.6 0.6 204 10.8
2009-04-22 08:03:10 51°13.04 2°51.091 268.5 0.6 201 10.9
2009-04-22 08:03:15 51°13.039 2°51.09 268.4 0.7 200 10.8
2009-04-22 08:03:20 51°13.038 2°51.09 268.3 0.6 202 10.8
2009-04-22 08:03:25 51°13.037 2°51.089 268.3 0.7 202 10.9
2009-04-22 08:03:30 51°13.036 2°51.088 268.1 0.7 217 10.8
2009-04-22 08:03:35 51°13.035 2°51.087 268.1 1 225 10.9
2009-04-22 08:03:40 51°13.035 2°51.084 267.7 1.3 241 10.8
2009-04-22 08:03:45 51°13.033 2°51.081 265.9 1.8 244 10.9
2009-04-22 08:03:50 51°13.032 2°51.076 263 2.3 247 10.8
2009-04-22 08:03:55 51°13.031 2°51.071 259.1 2.6 247 10.8
2009-04-22 08:04:00 51°13.029 2°51.065 254.8 3 244 10.7
2009-04-22 08:04:05 51°13.027 2°51.058 250 3.4 242 10.8
2009-04-22 08:04:10 51°13.024 2°51.051 244.8 3.7 237 10.8
2009-04-22 08:04:15 51°13.021 2°51.044 239.6 3.9 235 10.8
2009-04-22 08:04:20 51°13.017 2°51.038 234 4.1 227 10.8
2009-04-22 08:04:25 51°13.013 2°51.031 228.1 4.2 224 10.8
2009-04-22 08:04:30 51°13.008 2°51.026 221.9 4.2 217 10.8
2009-04-22 08:04:35 51°13.003 2°51.02 216.7 4.2 216 10.8
2009-04-22 08:04:40 51°12.998 2°51.016 211.8 4.2 209 10.9
2009-04-22 08:04:46 51°12.992 2°51.01 208.6 4.3 210 10.8
2009-04-22 08:04:50 51°12.988 2°51.007 206.4 4.3 206 10.8
2009-04-22 08:04:55 51°12.982 2°51.003 205.2 4.3 207 10.8
2009-04-22 08:05:00 51°12.977 2°50.999 204.2 4.3 205 10.8
2009-04-22 08:05:06 51°12.971 2°50.994 203.9 4.3 205 10.7
2009-04-22 08:05:10 51°12.966 2°50.991 203.8 4.3 204 10.7
2009-04-22 08:05:15 51°12.961 2°50.987 204 4.3 206 10.7
2009-04-22 08:05:20 51°12.955 2°50.984 204.8 4.2 205 10.7
2009-04-22 08:05:25 51°12.95 2°50.979 205.5 4.2 208 10.6
2009-04-22 08:05:30 51°12.945 2°50.975 207 4.1 207 10.7
2009-04-22 08:05:35 51°12.94 2°50.97 208.4 4.1 210 10.6
2009-04-22 08:05:40 51°12.935 2°50.966 210.2 4.1 210 10.6
2009-04-22 08:05:46 51°12.93 2°50.96 212 4 213 10.7
2009-04-22 08:05:50 51°12.926 2°50.956 213.9 4 214 10.6
2009-04-22 08:05:55 51°12.922 2°50.951 215.7 3.9 216 10.6
2009-04-22 08:05:59 51°12.918 2°50.947 217.8 3.9 216 10.5
2009-04-22 08:06:05 51°12.913 2°50.94 219.7 3.8 220 10.5
2009-04-22 08:06:10 51°12.909 2°50.935 221.5 3.8 221 10.6
2009-04-22 08:06:15 51°12.905 2°50.929 223.6 3.8 223 10.5
2009-04-22 08:06:20 51°12.902 2°50.923 225.4 3.7 223 10.5
2009-04-22 08:06:25 51°12.898 2°50.918 227.3 3.7 226 10.5
2009-04-22 08:06:30 51°12.894 2°50.912 228.7 3.7 226 10.5
2009-04-22 08:06:35 51°12.891 2°50.906 230.2 3.7 229 10.5
2009-04-22 08:06:40 51°12.888 2°50.899 231.4 3.6 229 10.5
2009-04-22 08:06:46 51°12.884 2°50.892 232.5 3.6 231 10.5
2009-04-22 08:06:50 51°12.882 2°50.887 233.8 3.6 231 10.5
2009-04-22 08:06:55 51°12.879 2°50.88 235.2 3.6 234 10.6
2009-04-22 08:07:00 51°12.876 2°50.874 236.3 3.6 234 10.5
2009-04-22 08:07:05 51°12.873 2°50.868 237.3 3.5 236 10.6
2009-04-22 08:07:10 51°12.87 2°50.861 238.3 3.6 234 10.6
2009-04-22 08:07:15 51°12.867 2°50.855 239 3.5 238 10.6
2009-04-22 08:07:20 51°12.865 2°50.848 239.9 3.6 236 10.6
2009-04-22 08:07:26 51°12.862 2°50.841 240.7 3.5 240 10.6
2009-04-22 08:07:30 51°12.859 2°50.835 241.4 3.5 237 10.6
2009-04-22 08:07:35 51°12.857 2°50.829 242.2 3.5 241 10.6
2009-04-22 08:07:40 51°12.855 2°50.822 243.2 3.5 239 10.5
2009-04-22 08:07:46 51°12.852 2°50.814 243.7 3.5 242 10.6
2009-04-22 08:07:50 51°12.85 2°50.809 244.3 3.4 239 10.5
2009-04-22 08:07:55 51°12.848 2°50.802 244.5 3.4 243 10.5
2009-04-22 08:08:00 51°12.845 2°50.795 245 3.5 242 10.6
2009-04-22 08:08:05 51°12.843 2°50.789 245.2 3.4 243 10.6
2009-04-22 08:08:10 51°12.841 2°50.782 245.7 3.4 244 10.6
2009-04-22 08:08:15 51°12.839 2°50.775 246.2 3.4 245 10.6
2009-04-22 08:08:20 51°12.837 2°50.768 246.5 3.4 246 10.6
2009-04-22 08:08:25 51°12.835 2°50.762 247 3.4 245 10.6
2009-04-22 08:08:30 51°12.833 2°50.755 247.3 3.4 245 10.6
2009-04-22 08:08:35 51°12.831 2°50.748 247.6 3.3 245 10.6
2009-04-22 08:08:41 51°12.829 2°50.74 247.8 3.4 245 10.6
2009-04-22 08:08:45 51°12.827 2°50.734 248 3.3 247 10.6
2009-04-22 08:08:50 51°12.825 2°50.728 248.1 3.3 244 10.6
2009-04-22 08:08:55 51°12.823 2°50.721 247.9 3.3 247 10.6
2009-04-22 08:09:00 51°12.822 2°50.714 247.7 3.3 244 10.6
2009-04-22 08:09:06 51°12.819 2°50.706 247.2 3.3 246 10.6
2009-04-22 08:09:10 51°12.817 2°50.701 246.6 3.4 242 10.6
2009-04-22 08:09:15 51°12.815 2°50.694 245.7 3.4 243 10.6
2009-04-22 08:09:20 51°12.813 2°50.688 244.9 3.4 241 10.6
2009-04-22 08:09:26 51°12.81 2°50.68 244 3.4 240 10.6
2009-04-22 08:09:30 51°12.808 2°50.675 243.1 3.5 240 10.6
2009-04-22 08:09:35 51°12.806 2°50.668 242.4 3.5 238 10.6
2009-04-22 08:09:40 51°12.803 2°50.661 241.7 3.6 239 10.6
2009-04-22 08:09:45 51°12.8 2°50.654 241.1 3.7 237 10.6
2009-04-22 08:09:50 51°12.798 2°50.647 240.5 3.7 238 10.6
2009-04-22 08:09:55 51°12.795 2°50.64 239.9 3.7 237 10.6
2009-04-22 08:10:00 51°12.792 2°50.633 239.2 3.8 238 10.7
2009-04-22 08:10:06 51°12.788 2°50.625 238.5 3.9 235 10.6
2009-04-22 08:10:10 51°12.786 2°50.619 237.9 3.8 236 10.6
2009-04-22 08:10:15 51°12.783 2°50.612 237.1 3.9 234 10.6
2009-04-22 08:10:20 51°12.78 2°50.605 236.8 3.9 236 10.6
2009-04-22 08:10:25 51°12.777 2°50.598 236.2 3.9 233 10.6
2009-04-22 08:10:30 51°12.773 2°50.591 235.8 3.9 234 10.6
2009-04-22 08:10:35 51°12.77 2°50.584 235.5 3.9 233 10.6
2009-04-22 08:10:40 51°12.767 2°50.577 235.3 4 233 10.6
2009-04-22 08:10:45 51°12.764 2°50.57 235.3 4 233 10.6
2009-04-22 08:10:50 51°12.76 2°50.563 235 4 234 10.6
2009-04-22 08:10:55 51°12.757 2°50.556 234.8 4 234 10.6
2009-04-22 08:11:00 51°12.754 2°50.549 234.7 4 233 10.6
2009-04-22 08:11:06 51°12.75 2°50.54 234.8 4 234 10.6
2009-04-22 08:11:10 51°12.747 2°50.535 234.6 4 232 10.6
2009-04-22 08:11:15 51°12.744 2°50.528 234.6 4 233 10.6
2009-04-22 08:11:21 51°12.74 2°50.519 234.5 4 232 10.6
2009-04-22 08:11:26 51°12.736 2°50.511 234.6 4 234 10.6
2009-04-22 08:11:30 51°12.733 2°50.506 234.6 4 232 10.6
2009-04-22 08:11:35 51°12.73 2°50.499 234.6 4.1 232 10.6
2009-04-22 08:11:40 51°12.727 2°50.492 234.6 4 233 10.5
2009-04-22 08:11:46 51°12.723 2°50.483 234.5 4 233 10.6
2009-04-22 08:11:50 51°12.72 2°50.477 234.8 4 233 10.6
2009-04-22 08:11:55 51°12.717 2°50.471 234.8 3.9 234 10.6
2009-04-22 08:12:00 51°12.714 2°50.464 235 3.9 233 10.5
2009-04-22 08:12:06 51°12.71 2°50.455 235 3.9 233 10.5
2009-04-22 08:12:10 51°12.708 2°50.45 235.2 3.8 233 10.6
2009-04-22 08:12:15 51°12.704 2°50.443 235.2 3.8 233 10.6
2009-04-22 08:12:20 51°12.701 2°50.436 235.1 3.8 234 10.6
2009-04-22 08:12:25 51°12.698 2°50.43 234.8 3.7 231 10.5
2009-04-22 08:12:30 51°12.695 2°50.423 234.5 3.7 233 10.5
2009-04-22 08:12:35 51°12.692 2°50.417 234.2 3.7 231 10.5
2009-04-22 08:12:40 51°12.689 2°50.41 234.2 3.7 234 10.5
2009-04-22 08:12:45 51°12.685 2°50.404 234.5 3.7 231 10.6
2009-04-22 08:12:50 51°12.682 2°50.397 234.5 3.7 233 10.5
2009-04-22 08:12:55 51°12.679 2°50.391 234.6 3.7 232 10.5
2009-04-22 08:13:00 51°12.676 2°50.385 234.9 3.7 233 10.5
2009-04-22 08:13:06 51°12.673 2°50.377 235.3 3.6 234 10.5
2009-04-22 08:13:10 51°12.67 2°50.372 235.5 3.6 233 10.5
2009-04-22 08:13:15 51°12.667 2°50.366 235.9 3.6 234 10.6
2009-04-22 08:13:20 51°12.664 2°50.359 236 3.6 233 10.5
2009-04-22 08:13:25 51°12.661 2°50.353 236 3.6 234 10.5
2009-04-22 08:13:30 51°12.658 2°50.347 236 3.6 233 10.5
2009-04-22 08:13:35 51°12.656 2°50.34 235.7 3.6 235 10.5
2009-04-22 08:13:40 51°12.652 2°50.334 235.6 3.6 232 10.5
2009-04-22 08:13:45 51°12.65 2°50.328 235.5 3.6 234 10.5
2009-04-22 08:13:50 51°12.646 2°50.322 235.1 3.5 232 10.5
2009-04-22 08:13:55 51°12.644 2°50.315 235.1 3.5 234 10.5
2009-04-22 08:14:00 51°12.641 2°50.309 234.9 3.5 233 10.5
2009-04-22 08:14:06 51°12.637 2°50.301 235 3.5 233 10.5
2009-04-22 08:14:10 51°12.635 2°50.296 235 3.5 234 10.5
2009-04-22 08:14:15 51°12.632 2°50.29 235.2 3.5 234 10.5
2009-04-22 08:14:20 51°12.629 2°50.284 235.1 3.5 235 10.5
2009-04-22 08:14:25 51°12.626 2°50.278 235.2 3.5 232 10.5
2009-04-22 08:14:30 51°12.623 2°50.271 234.7 3.5 233 10.5
2009-04-22 08:14:35 51°12.62 2°50.265 234.6 3.5 233 10.5
2009-04-22 08:14:40 51°12.617 2°50.259 234.5 3.5 232 10.5
2009-04-22 08:14:45 51°12.614 2°50.253 234.5 3.5 233 10.5
2009-04-22 08:14:50 51°12.611 2°50.247 234.5 3.5 231 10.5
2009-04-22 08:14:55 51°12.608 2°50.24 234.5 3.5 235 10.5
2009-04-22 08:15:00 51°12.605 2°50.234 234.9 3.5 231 10.5
2009-04-22 08:15:05 51°12.602 2°50.228 235 3.5 234 10.5
2009-04-22 08:15:10 51°12.599 2°50.222 235.3 3.5 231 10.5
2009-04-22 08:15:15 51°12.597 2°50.215 235.5 3.5 234 10.5
2009-04-22 08:15:20 51°12.593 2°50.209 235.6 3.5 232 10.5
2009-04-22 08:15:25 51°12.591 2°50.203 235.5 3.5 233 10.5
2009-04-22 08:15:30 51°12.588 2°50.197 235 3.5 231 10.5
2009-04-22 08:15:35 51°12.585 2°50.191 234.3 3.5 231 10.5
2009-04-22 08:15:40 51°12.581 2°50.185 233.7 3.5 231 10.5
2009-04-22 08:15:45 51°12.578 2°50.179 233.2 3.5 230 10.5
2009-04-22 08:15:50 51°12.575 2°50.173 232.4 3.5 230 10.5
2009-04-22 08:15:55 51°12.572 2°50.168 232.3 3.5 228 10.5
2009-04-22 08:16:00 51°12.568 2°50.162 231.3 3.5 229 10.5
2009-04-22 08:16:06 51°12.564 2°50.155 231.2 3.5 228 10.5
2009-04-22 08:16:10 51°12.562 2°50.151 230.7 3.5 228 10.5
2009-04-22 08:16:15 51°12.559 2°50.145 230.6 3.5 229 10.5
2009-04-22 08:16:20 51°12.555 2°50.139 230.2 3.5 227 10.5
2009-04-22 08:16:25 51°12.552 2°50.133 230 3.5 229 10.5
2009-04-22 08:16:30 51°12.549 2°50.128 229.8 3.5 227 10.5
2009-04-22 08:16:35 51°12.545 2°50.122 229.6 3.5 227 10.4
2009-04-22 08:16:40 51°12.542 2°50.117 229.4 3.5 226 10.4
2009-04-22 08:16:45 51°12.539 2°50.111 229.1 3.5 226 10.4
2009-04-22 08:16:50 51°12.535 2°50.106 228.9 3.5 226 10.4
2009-04-22 08:16:55 51°12.532 2°50.1 228.7 3.5 224 10.4
2009-04-22 08:17:00 51°12.528 2°50.095 228.6 3.5 226 10.4
2009-04-22 08:17:05 51°12.525 2°50.09 228.6 3.5 224 10.4
2009-04-22 08:17:10 51°12.522 2°50.084 228.6 3.5 227 10.4
2009-04-22 08:17:15 51°12.518 2°50.079 228.8 3.5 224 10.4
2009-04-22 08:17:20 51°12.515 2°50.073 229 3.5 229 10.5
2009-04-22 08:17:25 51°12.511 2°50.067 229.5 3.5 224 10.5
2009-04-22 08:17:30 51°12.508 2°50.061 229.8 3.5 229 10.4
2009-04-22 08:17:35 51°12.505 2°50.056 229.7 3.5 224 10.4
2009-04-22 08:17:40 51°12.502 2°50.05 229.6 3.5 230 10.4
2009-04-22 08:17:45 51°12.498 2°50.045 229.6 3.5 223 10.4
2009-04-22 08:17:50 51°12.495 2°50.039 229.5 3.5 230 10.4
2009-04-22 08:17:55 51°12.492 2°50.034 229.4 3.5 224 10.4
2009-04-22 08:18:01 51°12.488 2°50.027 229.4 3.5 230 10.4
2009-04-22 08:18:05 51°12.485 2°50.022 229.7 3.5 226 10.4
2009-04-22 08:18:10 51°12.482 2°50.016 229.6 3.5 229 10.4
2009-04-22 08:18:15 51°12.478 2°50.011 229.9 3.5 226 10.4
2009-04-22 08:18:20 51°12.475 2°50.005 230 3.5 229 10.4
2009-04-22 08:18:26 51°12.471 2°49.998 230 3.5 227 10.5
2009-04-22 08:18:30 51°12.469 2°49.994 230.1 3.5 229 10.4
2009-04-22 08:18:35 51°12.465 2°49.988 230.1 3.5 227 10.4
2009-04-22 08:18:41 51°12.462 2°49.981 229.7 3.5 229 10.4
2009-04-22 08:18:46 51°12.458 2°49.975 229.5 3.5 226 10.4
2009-04-22 08:18:50 51°12.456 2°49.97 229.3 3.5 228 10.4
2009-04-22 08:18:55 51°12.453 2°49.964 229.4 3.5 226 10.4
2009-04-22 08:19:00 51°12.449 2°49.958 229.5 3.5 229 10.4
2009-04-22 08:19:06 51°12.445 2°49.952 229.9 3.5 226 10.5
2009-04-22 08:19:10 51°12.443 2°49.947 229.9 3.5 229 10.4
2009-04-22 08:19:15 51°12.439 2°49.941 230 3.5 225 10.4
2009-04-22 08:19:20 51°12.436 2°49.936 229.6 3.5 229 10.4
2009-04-22 08:19:25 51°12.433 2°49.93 229.7 3.5 226 10.4
2009-04-22 08:19:30 51°12.429 2°49.924 229.8 3.5 229 10.5
2009-04-22 08:19:35 51°12.426 2°49.919 229.7 3.5 226 10.4
2009-04-22 08:19:40 51°12.423 2°49.913 229.7 3.5 229 10.4
2009-04-22 08:19:46 51°12.419 2°49.906 229.6 3.5 225 10.4
2009-04-22 08:19:50 51°12.416 2°49.902 229.6 3.5 227 10.4
2009-04-22 08:19:55 51°12.412 2°49.897 229.2 3.5 226 10.4
2009-04-22 08:20:00 51°12.409 2°49.891 228.8 3.5 228 10.4
2009-04-22 08:20:05 51°12.405 2°49.886 228.8 3.5 225 10.4
2009-04-22 08:20:10 51°12.402 2°49.88 228.9 3.5 226 10.4
2009-04-22 08:20:15 51°12.399 2°49.875 229 3.4 224 10.4
2009-04-22 08:20:20 51°12.395 2°49.869 229.2 3.5 228 10.4
2009-04-22 08:20:26 51°12.391 2°49.863 229.4 3.5 225 10.4
2009-04-22 08:20:30 51°12.389 2°49.858 229.9 3.5 230 10.4
2009-04-22 08:20:35 51°12.386 2°49.853 230.9 3.4 227 10.4
2009-04-22 08:20:41 51°12.382 2°49.846 231.9 3.4 231 10.4
2009-04-22 08:20:46 51°12.379 2°49.84 232.9 3.4 227 10.4
2009-04-22 08:20:50 51°12.377 2°49.835 233.7 3.4 232 10.4
2009-04-22 08:20:55 51°12.374 2°49.83 234.5 3.4 229 10.4
2009-04-22 08:21:00 51°12.371 2°49.823 235.4 3.3 235 10.4
2009-04-22 08:21:06 51°12.368 2°49.816 235.9 3.4 232 10.5
2009-04-22 08:21:10 51°12.366 2°49.812 236.7 3.3 236 10.4
2009-04-22 08:21:15 51°12.363 2°49.806 237.2 3.3 232 10.4
2009-04-22 08:21:21 51°12.36 2°49.798 237.6 3.3 237 10.4
2009-04-22 08:21:26 51°12.357 2°49.792 237.8 3.3 234 10.4
2009-04-22 08:21:30 51°12.355 2°49.787 238.1 3.3 238 10.4
2009-04-22 08:21:35 51°12.352 2°49.781 238.3 3.4 234 10.4
2009-04-22 08:21:40 51°12.35 2°49.775 238.3 3.3 237 10.4
2009-04-22 08:21:46 51°12.347 2°49.768 238.3 3.4 235 10.4
2009-04-22 08:21:50 51°12.345 2°49.763 238.3 3.4 237 10.5
2009-04-22 08:21:55 51°12.342 2°49.757 238.3 3.4 235 10.4
2009-04-22 08:22:00 51°12.339 2°49.75 238.2 3.4 239 10.5
2009-04-22 08:22:05 51°12.336 2°49.744 238.5 3.4 235 10.5
2009-04-22 08:22:10 51°12.334 2°49.738 238.5 3.4 239 10.5
2009-04-22 08:22:15 51°12.331 2°49.732 238.6 3.4 235 10.5
2009-04-22 08:22:21 51°12.328 2°49.724 238.4 3.4 237 10.5
2009-04-22 08:22:25 51°12.326 2°49.719 238.4 3.4 235 10.4
2009-04-22 08:22:30 51°12.323 2°49.713 238 3.4 236 10.5
2009-04-22 08:22:35 51°12.321 2°49.707 237.9 3.4 236 10.4
2009-04-22 08:22:40 51°12.318 2°49.701 237.6 3.4 234 10.4
2009-04-22 08:22:46 51°12.315 2°49.693 237.4 3.4 238 10.4
2009-04-22 08:22:50 51°12.313 2°49.689 237.4 3.4 234 10.5
2009-04-22 08:22:55 51°12.31 2°49.682 237.4 3.4 235 10.5
2009-04-22 08:23:00 51°12.307 2°49.676 237.3 3.4 234 10.5
2009-04-22 08:23:06 51°12.304 2°49.669 237 3.4 236 10.4
2009-04-22 08:23:10 51°12.302 2°49.664 236.7 3.4 233 10.4
2009-04-22 08:23:15 51°12.299 2°49.658 236.6 3.4 235 10.5
2009-04-22 08:23:20 51°12.296 2°49.652 236.2 3.4 233 10.5
2009-04-22 08:23:25 51°12.294 2°49.646 236 3.4 234 10.5
2009-04-22 08:23:30 51°12.291 2°49.64 235.8 3.4 232 10.5
2009-04-22 08:23:35 51°12.288 2°49.634 235.7 3.4 234 10.4
2009-04-22 08:23:40 51°12.285 2°49.628 235.5 3.4 230 10.4
2009-04-22 08:23:45 51°12.282 2°49.622 235.6 3.4 236 10.5
2009-04-22 08:23:50 51°12.279 2°49.617 235.7 3.4 229 10.4
2009-04-22 08:23:55 51°12.277 2°49.61 235.6 3.4 237 10.4
2009-04-22 08:24:00 51°12.273 2°49.605 235.7 3.4 230 10.5
2009-04-22 08:24:05 51°12.271 2°49.599 235.9 3.4 235 10.5
2009-04-22 08:24:10 51°12.268 2°49.593 235.9 3.4 229 10.5
2009-04-22 08:24:15 51°12.265 2°49.587 235.9 3.4 236 10.5
2009-04-22 08:24:20 51°12.262 2°49.581 236.1 3.4 229 10.4
2009-04-22 08:24:25 51°12.259 2°49.575 236 3.4 236 10.4
2009-04-22 08:24:30 51°12.256 2°49.569 235.8 3.4 227 10.5
2009-04-22 08:24:35 51°12.254 2°49.563 235.5 3.4 235 10.5
2009-04-22 08:24:40 51°12.251 2°49.557 235.4 3.4 230 10.4
2009-04-22 08:24:46 51°12.247 2°49.55 235.2 3.4 234 10.5
2009-04-22 08:24:50 51°12.245 2°49.546 235.2 3.4 230 10.5
2009-04-22 08:24:55 51°12.242 2°49.54 235.1 3.4 233 10.4
2009-04-22 08:25:00 51°12.239 2°49.534 235 3.4 231 10.5
2009-04-22 08:25:06 51°12.235 2°49.527 235.2 3.4 233 10.5
2009-04-22 08:25:10 51°12.233 2°49.522 235.2 3.4 231 10.5
2009-04-22 08:25:15 51°12.23 2°49.516 235.2 3.4 233 10.5
2009-04-22 08:25:20 51°12.227 2°49.51 235.3 3.4 232 10.5
2009-04-22 08:25:25 51°12.225 2°49.504 235.4 3.4 234 10.5
2009-04-22 08:25:30 51°12.222 2°49.498 235.4 3.4 231 10.5
2009-04-22 08:25:35 51°12.219 2°49.493 235.3 3.4 232 10.4
2009-04-22 08:25:40 51°12.216 2°49.487 235.2 3.4 231 10.5
2009-04-22 08:25:46 51°12.212 2°49.479 235.2 3.4 231 10.5
2009-04-22 08:25:50 51°12.21 2°49.475 234.9 3.4 232 10.5
2009-04-22 08:25:55 51°12.207 2°49.469 235 3.4 231 10.5
2009-04-22 08:25:59 51°12.204 2°49.464 234.9 3.4 232 10.5
2009-04-22 08:26:06 51°12.2 2°49.455 235.1 3.4 231 10.5
2009-04-22 08:26:10 51°12.198 2°49.451 235 3.5 232 10.5
2009-04-22 08:26:15 51°12.195 2°49.445 235 3.5 232 10.5
2009-04-22 08:26:20 51°12.192 2°49.439 235.2 3.5 232 10.4
2009-04-22 08:26:25 51°12.189 2°49.433 235.2 3.5 232 10.5
2009-04-22 08:26:30 51°12.186 2°49.427 235.1 3.5 231 10.5
2009-04-22 08:26:35 51°12.183 2°49.42 234.7 3.5 231 10.5
2009-04-22 08:26:39 51°12.18 2°49.416 234.8 3.5 230 10.5
2009-04-22 08:26:45 51°12.177 2°49.408 234.6 3.5 233 10.5
2009-04-22 08:26:50 51°12.174 2°49.402 234.8 3.5 232 10.5
2009-04-22 08:26:55 51°12.171 2°49.396 235 3.5 232 10.5
2009-04-22 08:27:00 51°12.168 2°49.39 235.3 3.5 231 10.5
2009-04-22 08:27:05 51°12.165 2°49.384 235.2 3.5 232 10.5
2009-04-22 08:27:10 51°12.162 2°49.378 235.1 3.5 231 10.5
2009-04-22 08:27:15 51°12.159 2°49.372 235.1 3.5 234 10.4
2009-04-22 08:27:20 51°12.156 2°49.366 235.2 3.5 230 10.5
2009-04-22 08:27:26 51°12.152 2°49.358 235.2 3.5 233 10.5
2009-04-22 08:27:30 51°12.15 2°49.353 235.4 3.5 232 10.4
2009-04-22 08:27:35 51°12.147 2°49.347 235.2 3.5 233 10.5
2009-04-22 08:27:40 51°12.144 2°49.341 235.4 3.5 232 10.4
2009-04-22 08:27:45 51°12.141 2°49.335 235.5 3.5 234 10.5
2009-04-22 08:27:50 51°12.138 2°49.329 235.6 3.5 232 10.5
2009-04-22 08:27:55 51°12.135 2°49.323 235.5 3.5 233 10.6
2009-04-22 08:28:01 51°12.131 2°49.315 235.5 3.5 232 10.5
2009-04-22 08:28:05 51°12.129 2°49.31 235.4 3.5 233 10.5
2009-04-22 08:28:10 51°12.126 2°49.304 235.3 3.5 233 10.5
2009-04-22 08:28:15 51°12.123 2°49.298 235.2 3.5 231 10.5
2009-04-22 08:28:20 51°12.12 2°49.291 235.2 3.5 233 10.5
2009-04-22 08:28:26 51°12.117 2°49.284 235.2 3.5 232 10.5
2009-04-22 08:28:30 51°12.114 2°49.279 235.3 3.5 234 10.5
2009-04-22 08:28:35 51°12.111 2°49.272 235.5 3.5 232 10.5
2009-04-22 08:28:40 51°12.109 2°49.266 235.8 3.5 234 10.5
2009-04-22 08:28:45 51°12.106 2°49.26 235.9 3.5 234 10.5
2009-04-22 08:28:50 51°12.103 2°49.254 235.8 3.5 235 10.5
2009-04-22 08:28:55 51°12.1 2°49.247 235.8 3.5 234 10.5
2009-04-22 08:29:00 51°12.097 2°49.241 235.8 3.5 235 10.5
2009-04-22 08:29:06 51°12.094 2°49.233 235.8 3.6 234 10.5
2009-04-22 08:29:10 51°12.091 2°49.228 236 3.6 234 10.5
2009-04-22 08:29:15 51°12.089 2°49.222 236 3.6 234 10.5
2009-04-22 08:29:20 51°12.086 2°49.215 236 3.6 236 10.5
2009-04-22 08:29:25 51°12.083 2°49.209 236 3.6 234 10.5
2009-04-22 08:29:30 51°12.08 2°49.202 235.9 3.6 236 10.5
2009-04-22 08:29:35 51°12.077 2°49.196 235.7 3.6 233 10.5
2009-04-22 08:29:40 51°12.074 2°49.189 235.5 3.6 235 10.5
2009-04-22 08:29:46 51°12.071 2°49.181 235.5 3.6 235 10.5
2009-04-22 08:29:50 51°12.069 2°49.176 235.5 3.6 234 10.6
2009-04-22 08:29:55 51°12.066 2°49.17 235.6 3.6 237 10.5
2009-04-22 08:30:01 51°12.062 2°49.162 235.4 3.6 233 10.5
2009-04-22 08:30:06 51°12.059 2°49.155 235.4 3.6 236 10.5
2009-04-22 08:30:10 51°12.057 2°49.15 235.3 3.6 233 10.5
2009-04-22 08:30:15 51°12.054 2°49.143 235.2 3.6 236 10.5
2009-04-22 08:30:20 51°12.051 2°49.137 235.3 3.6 235 10.5
2009-04-22 08:30:26 51°12.048 2°49.129 235.3 3.6 235 10.5
2009-04-22 08:30:30 51°12.045 2°49.124 235.5 3.6 235 10.5
2009-04-22 08:30:35 51°12.042 2°49.117 235.8 3.6 236 10.5
2009-04-22 08:30:39 51°12.04 2°49.112 235.9 3.6 235 10.5
2009-04-22 08:30:46 51°12.036 2°49.103 236 3.6 235 10.5
2009-04-22 08:30:50 51°12.034 2°49.098 236 3.7 235 10.6
2009-04-22 08:30:55 51°12.031 2°49.091 236 3.6 234 10.5
2009-04-22 08:31:00 51°12.028 2°49.084 235.6 3.6 236 10.5